createdAt,value
2023-03-06T00:02:06.358Z,9.33
2023-03-06T00:04:33.635Z,8.77
2023-03-06T00:07:01.068Z,9.17
2023-03-06T00:09:28.294Z,8.90
2023-03-06T00:11:55.552Z,7.90
2023-03-06T00:14:22.826Z,8.47
2023-03-06T00:16:53.424Z,8.07
2023-03-06T00:19:20.608Z,9.57
2023-03-06T00:21:47.875Z,9.20
2023-03-06T00:24:15.274Z,11.60
2023-03-06T00:26:43.226Z,9.57
2023-03-06T00:29:10.839Z,8.20
2023-03-06T00:31:38.241Z,9.20
2023-03-06T00:34:05.562Z,11.53
2023-03-06T00:36:32.887Z,12.17
2023-03-06T00:39:00.143Z,10.07
2023-03-06T00:41:27.431Z,9.97
2023-03-06T00:43:54.676Z,10.50
2023-03-06T00:46:22.011Z,9.37
2023-03-06T00:48:49.245Z,10.73
2023-03-06T00:51:19.256Z,9.03
2023-03-06T00:53:46.536Z,9.57
2023-03-06T00:56:13.966Z,10.73
2023-03-06T00:58:42.199Z,10.70
2023-03-06T01:01:09.516Z,12.83
2023-03-06T01:03:36.859Z,10.13
2023-03-06T01:06:04.346Z,12.47
2023-03-06T01:08:31.527Z,9.97
2023-03-06T01:10:58.828Z,11.00
2023-03-06T01:13:26.143Z,10.77
2023-03-06T01:15:53.464Z,11.90
2023-03-06T01:18:21.938Z,12.00
2023-03-06T01:20:49.264Z,15.23
2023-03-06T01:23:16.497Z,9.90
2023-03-06T01:25:43.780Z,9.63
2023-03-06T01:28:11.439Z,11.13
2023-03-06T01:30:38.673Z,10.40
2023-03-06T01:33:06.094Z,13.80
2023-03-06T01:35:33.388Z,12.97
2023-03-06T01:38:00.615Z,9.77
2023-03-06T01:40:30.550Z,14.23
2023-03-06T01:42:57.859Z,14.47
2023-03-06T01:45:25.222Z,13.63
2023-03-06T01:47:52.541Z,12.50
2023-03-06T01:50:19.793Z,15.03
2023-03-06T01:52:58.047Z,13.37
2023-03-06T01:55:30.756Z,14.97
2023-03-06T01:58:01.198Z,17.03
2023-03-06T02:00:29.474Z,15.07
2023-03-06T02:03:06.718Z,14.97
2023-03-06T02:05:34.246Z,13.47
2023-03-06T02:08:03.754Z,15.00
2023-03-06T02:10:31.109Z,17.13
2023-03-06T02:12:58.911Z,18.53
2023-03-06T02:15:29.099Z,18.77
2023-03-06T02:17:56.728Z,16.23
2023-03-06T02:20:53.397Z,18.80
2023-03-06T02:23:30.714Z,16.63
2023-03-06T02:26:00.908Z,16.67
2023-03-06T02:28:28.551Z,17.60
2023-03-06T02:30:56.755Z,17.73
2023-03-06T02:33:27.717Z,16.93
2023-03-06T02:36:04.293Z,22.30
2023-03-06T02:38:40.266Z,19.30
2023-03-06T02:41:09.456Z,17.17
2023-03-06T02:43:38.734Z,19.07
2023-03-06T02:46:06.941Z,21.33
2023-03-06T02:48:34.301Z,19.97
2023-03-06T02:51:01.571Z,22.20
2023-03-06T02:53:28.787Z,21.33
2023-03-06T02:55:56.002Z,26.87
2023-03-06T02:58:23.396Z,21.13
2023-03-06T03:00:50.870Z,20.00
2023-03-06T03:03:19.578Z,20.40
2023-03-06T03:05:46.870Z,22.00
2023-03-06T03:08:24.606Z,23.33
2023-03-06T03:10:57.056Z,22.00
2023-03-06T03:13:25.748Z,21.60
2023-03-06T03:16:05.203Z,21.20
2023-03-06T03:18:33.276Z,24.70
2023-03-06T03:21:00.717Z,24.77
2023-03-06T03:23:28.622Z,23.13
2023-03-06T03:26:19.596Z,21.17
2023-03-06T03:28:56.790Z,28.23
2023-03-06T03:31:24.117Z,27.20
2023-03-06T03:33:51.460Z,26.23
2023-03-06T03:36:20.360Z,24.43
2023-03-06T03:38:48.272Z,21.80
2023-03-06T03:41:15.683Z,26.37
2023-03-06T03:43:43.340Z,23.97
2023-03-06T03:46:11.445Z,25.13
2023-03-06T03:48:39.260Z,24.70
2023-03-06T03:51:12.915Z,24.93
2023-03-06T03:53:44.900Z,21.83
2023-03-06T03:56:14.562Z,24.70
2023-03-06T03:58:53.885Z,29.40
2023-03-06T04:01:22.108Z,27.37
2023-03-06T04:03:49.884Z,26.83
2023-03-06T04:06:18.129Z,25.87
2023-03-06T04:08:46.095Z,27.90
2023-03-06T04:11:13.957Z,25.27
2023-03-06T04:13:42.090Z,26.23
2023-03-06T04:16:09.618Z,24.37
2023-03-06T04:18:38.699Z,24.27
2023-03-06T04:21:07.080Z,24.60
2023-03-06T04:23:34.423Z,25.83
2023-03-06T04:26:01.900Z,25.83
2023-03-06T04:28:29.425Z,26.80
2023-03-06T04:30:57.901Z,27.37
2023-03-06T04:33:25.668Z,25.17
2023-03-06T04:35:54.189Z,28.67
2023-03-06T04:38:26.005Z,27.80
2023-03-06T04:40:53.605Z,25.23
2023-03-06T04:43:21.095Z,29.57
2023-03-06T04:45:48.563Z,28.03
2023-03-06T04:48:18.166Z,32.03
2023-03-06T04:50:45.525Z,30.47
2023-03-06T04:53:14.457Z,35.63
2023-03-06T04:55:41.799Z,29.47
2023-03-06T04:58:11.697Z,25.67
2023-03-06T05:00:39.025Z,28.40
2023-03-06T05:03:06.376Z,25.13
2023-03-06T05:05:33.697Z,29.97
2023-03-06T05:08:00.926Z,28.03
2023-03-06T05:10:29.166Z,28.10
2023-03-06T05:12:56.392Z,30.40
2023-03-06T05:15:24.161Z,32.30
2023-03-06T05:17:51.482Z,24.90
2023-03-06T05:20:18.920Z,32.87
2023-03-06T05:22:46.225Z,33.90
2023-03-06T05:25:13.526Z,28.50
2023-03-06T05:27:41.245Z,27.70
2023-03-06T05:30:12.452Z,28.67
2023-03-06T05:32:39.918Z,30.57
2023-03-06T05:35:07.538Z,30.37
2023-03-06T05:37:35.029Z,29.70
2023-03-06T05:40:06.199Z,32.03
2023-03-06T05:42:33.532Z,30.77
2023-03-06T05:45:02.557Z,29.40
2023-03-06T05:47:30.380Z,30.13
2023-03-06T05:49:57.660Z,33.70
2023-03-06T05:52:25.264Z,31.23
2023-03-06T05:54:54.486Z,31.20
2023-03-06T05:57:23.996Z,38.50
2023-03-06T05:59:51.314Z,29.87
2023-03-06T06:02:19.449Z,28.83
2023-03-06T06:04:46.841Z,29.07
2023-03-06T06:07:16.249Z,32.40
2023-03-06T06:09:45.433Z,28.07
2023-03-06T06:12:13.586Z,27.63
2023-03-06T06:14:40.964Z,34.63
2023-03-06T06:17:08.321Z,32.57
2023-03-06T06:19:35.744Z,32.67
2023-03-06T06:22:03.816Z,27.60
2023-03-06T06:24:31.671Z,31.77
2023-03-06T06:27:02.589Z,28.73
2023-03-06T06:29:31.368Z,31.57
2023-03-06T06:31:58.831Z,27.93
2023-03-06T06:34:26.668Z,28.73
2023-03-06T06:36:54.492Z,31.93
2023-03-06T06:39:23.282Z,30.73
2023-03-06T06:42:09.605Z,30.17
2023-03-06T06:44:40.110Z,32.80
2023-03-06T06:47:25.193Z,32.13
2023-03-06T06:49:54.254Z,31.00
2023-03-06T06:52:22.714Z,30.27
2023-03-06T06:54:51.312Z,32.43
2023-03-06T06:57:18.738Z,28.80
2023-03-06T06:59:46.066Z,28.70
2023-03-06T07:02:14.744Z,28.20
2023-03-06T07:05:00.309Z,27.27
2023-03-06T07:07:30.979Z,29.10
2023-03-06T07:09:58.259Z,29.00
2023-03-06T07:12:25.487Z,27.17
2023-03-06T07:14:52.681Z,29.83
2023-03-06T07:17:20.270Z,25.00
2023-03-06T07:19:48.168Z,27.97
2023-03-06T07:22:15.628Z,25.73
2023-03-06T07:24:43.031Z,30.37
2023-03-06T07:27:10.383Z,25.00
2023-03-06T07:29:37.726Z,27.17
2023-03-06T07:32:05.156Z,31.20
2023-03-06T07:34:32.496Z,28.60
2023-03-06T07:36:59.823Z,25.43
2023-03-06T07:39:28.083Z,28.53
2023-03-06T07:41:55.576Z,29.83
2023-03-06T07:44:22.954Z,27.80
2023-03-06T07:46:50.450Z,29.63
2023-03-06T07:49:17.878Z,28.90
2023-03-06T07:51:45.238Z,24.83
2023-03-06T07:54:12.659Z,31.50
2023-03-06T07:56:39.929Z,28.47
2023-03-06T07:59:07.181Z,32.47
2023-03-06T08:01:36.307Z,30.57
2023-03-06T08:04:03.863Z,26.97
2023-03-06T08:06:32.167Z,28.07
2023-03-06T08:08:59.818Z,30.20
2023-03-06T08:11:29.896Z,28.93
2023-03-06T08:13:58.595Z,28.30
2023-03-06T08:16:28.956Z,32.77
2023-03-06T08:18:57.169Z,27.67
2023-03-06T08:21:27.272Z,26.03
2023-03-06T08:23:55.009Z,30.23
2023-03-06T08:26:26.679Z,30.20
2023-03-06T08:28:56.079Z,28.77
2023-03-06T08:31:38.926Z,30.27
2023-03-06T08:34:09.004Z,29.77
2023-03-06T08:36:36.545Z,33.53
2023-03-06T08:39:04.395Z,30.67
2023-03-06T08:41:32.234Z,31.53
2023-03-06T08:43:59.787Z,30.93
2023-03-06T08:46:29.320Z,30.10
2023-03-06T08:48:56.968Z,32.33
2023-03-06T08:51:25.346Z,30.07
2023-03-06T08:53:52.796Z,28.43
2023-03-06T08:56:29.478Z,28.40
2023-03-06T08:58:58.347Z,29.77
2023-03-06T09:01:28.940Z,30.83
2023-03-06T09:04:01.797Z,26.87
2023-03-06T09:06:32.108Z,31.97
2023-03-06T09:08:59.894Z,30.57
2023-03-06T09:11:28.077Z,28.33
2023-03-06T09:13:56.551Z,27.77
2023-03-06T09:16:24.344Z,31.60
2023-03-06T09:18:53.968Z,25.53
2023-03-06T09:21:22.938Z,22.27
2023-03-06T09:23:51.210Z,23.70
2023-03-06T09:26:18.952Z,26.87
2023-03-06T09:28:46.540Z,26.40
2023-03-06T09:31:19.113Z,26.33
2023-03-06T09:33:47.275Z,27.43
2023-03-06T09:36:21.262Z,27.43
2023-03-06T09:38:49.891Z,25.33
2023-03-06T09:41:40.550Z,25.47
2023-03-06T09:44:23.527Z,27.20
2023-03-06T09:47:21.918Z,24.20
2023-03-06T09:50:04.980Z,24.07
2023-03-06T09:53:00.835Z,24.97
2023-03-06T09:55:38.375Z,25.00
2023-03-06T09:58:20.051Z,24.17
2023-03-06T10:01:09.865Z,26.93
2023-03-06T10:04:04.187Z,27.87
2023-03-06T10:06:38.829Z,27.47
2023-03-06T10:09:39.478Z,22.40
2023-03-06T10:12:21.338Z,27.23
2023-03-06T10:15:06.728Z,27.47
2023-03-06T10:17:37.469Z,31.83
2023-03-06T10:20:19.067Z,24.90
2023-03-06T10:23:11.181Z,26.30
2023-03-06T10:25:57.105Z,27.33
2023-03-06T10:28:35.425Z,23.00
2023-03-06T10:31:25.929Z,26.23
2023-03-06T10:34:04.776Z,24.13
2023-03-06T10:36:31.993Z,22.00
2023-03-06T10:38:59.937Z,27.80
2023-03-06T10:41:31.987Z,24.40
2023-03-06T10:44:05.190Z,22.40
2023-03-06T10:46:47.473Z,22.30
2023-03-06T10:49:32.958Z,20.20
2023-03-06T10:52:09.321Z,21.97
2023-03-06T10:54:39.653Z,22.03
2023-03-06T10:57:30.447Z,20.90
2023-03-06T11:00:02.356Z,24.30
2023-03-06T11:02:38.562Z,24.20
2023-03-06T11:05:17.506Z,21.00
2023-03-06T11:07:59.502Z,18.43
2023-03-06T11:10:28.335Z,22.50
2023-03-06T11:13:00.216Z,22.23
2023-03-06T11:15:29.401Z,25.63
2023-03-06T11:18:01.653Z,20.00
2023-03-06T11:20:51.159Z,30.23
2023-03-06T11:23:34.933Z,20.23
2023-03-06T11:26:30.535Z,25.70
2023-03-06T11:29:18.566Z,24.00
2023-03-06T11:31:56.955Z,25.27
2023-03-06T11:34:41.328Z,22.77
2023-03-06T11:37:33.665Z,23.27
2023-03-06T11:40:32.198Z,19.87
2023-03-06T11:43:38.184Z,24.83
2023-03-06T11:46:28.219Z,23.03
2023-03-06T11:49:06.524Z,26.43
2023-03-06T11:51:41.167Z,22.10
2023-03-06T11:54:12.426Z,25.17
2023-03-06T11:57:02.159Z,20.10
2023-03-06T11:59:44.816Z,18.50
2023-03-06T12:02:54.336Z,15.97
2023-03-06T12:05:34.521Z,18.87
2023-03-06T12:08:12.674Z,17.87
2023-03-06T12:10:57.295Z,17.27
2023-03-06T12:14:06.175Z,20.90
2023-03-06T12:16:58.626Z,19.90
2023-03-06T12:19:39.043Z,25.47
2023-03-06T12:22:21.785Z,19.27
2023-03-06T12:25:07.561Z,20.27
2023-03-06T12:27:57.930Z,19.90
2023-03-06T12:30:47.933Z,22.10
2023-03-06T12:33:37.864Z,22.70
2023-03-06T12:36:19.971Z,20.07
2023-03-06T12:38:56.923Z,22.93
2023-03-06T12:41:53.917Z,16.43
2023-03-06T12:44:33.196Z,19.90
2023-03-06T12:47:04.937Z,19.37
2023-03-06T12:49:38.617Z,22.93
2023-03-06T12:52:08.882Z,24.13
2023-03-06T12:54:39.944Z,20.47
2023-03-06T12:57:12.455Z,18.80
2023-03-06T12:59:47.954Z,20.67
2023-03-06T13:02:45.115Z,18.43
2023-03-06T13:06:00.925Z,19.03
2023-03-06T13:08:52.823Z,15.23
2023-03-06T13:11:42.129Z,17.33
2023-03-06T13:14:48.729Z,15.10
2023-03-06T13:17:21.200Z,18.13
2023-03-06T13:20:11.426Z,17.37
2023-03-06T13:22:39.653Z,16.97
2023-03-06T13:25:19.071Z,16.30
2023-03-06T13:27:46.779Z,15.67
2023-03-06T13:30:22.168Z,18.47
2023-03-06T13:32:52.745Z,14.80
2023-03-06T13:35:32.425Z,14.47
2023-03-06T13:38:01.128Z,10.77
2023-03-06T13:40:31.692Z,10.47
2023-03-06T13:43:08.042Z,15.47
2023-03-06T13:45:43.766Z,11.43
2023-03-06T13:48:43.114Z,14.53
2023-03-06T13:51:24.632Z,17.97
2023-03-06T13:54:21.592Z,14.77
2023-03-06T13:57:29.227Z,14.70
2023-03-06T14:00:26.398Z,16.17
2023-03-06T14:02:56.761Z,19.07
2023-03-06T14:05:25.538Z,22.53
2023-03-06T14:08:15.004Z,20.30
2023-03-06T14:10:44.881Z,18.07
2023-03-06T14:13:24.283Z,17.60
2023-03-06T14:15:54.300Z,16.47
2023-03-06T14:18:43.982Z,17.57
2023-03-06T14:21:13.513Z,23.87
2023-03-06T14:23:42.606Z,19.90
2023-03-06T14:26:19.067Z,18.90
2023-03-06T14:28:52.191Z,24.47
2023-03-06T14:31:25.606Z,20.23
2023-03-06T14:34:01.251Z,18.23
2023-03-06T14:36:34.500Z,19.40
2023-03-06T14:39:15.012Z,21.60
2023-03-06T14:41:42.251Z,16.93
2023-03-06T14:44:19.260Z,19.43
2023-03-06T14:46:57.745Z,21.60
2023-03-06T14:49:26.683Z,24.90
2023-03-06T14:52:01.828Z,19.30
2023-03-06T14:54:35.273Z,20.50
2023-03-06T14:57:12.064Z,16.93
2023-03-06T14:59:56.197Z,18.33
2023-03-06T15:02:27.989Z,16.23
2023-03-06T15:05:00.776Z,18.23
2023-03-06T15:07:33.181Z,15.67
2023-03-06T15:10:01.163Z,15.07
2023-03-06T15:12:31.390Z,15.60
2023-03-06T15:15:00.197Z,15.97
2023-03-06T15:17:27.424Z,16.07
2023-03-06T15:19:57.077Z,14.90
2023-03-06T15:22:34.514Z,13.27
2023-03-06T15:25:27.165Z,15.27
2023-03-06T15:27:57.238Z,14.37
2023-03-06T15:30:32.507Z,14.73
2023-03-06T15:33:18.019Z,17.23
2023-03-06T15:36:01.656Z,15.40
2023-03-06T15:38:40.284Z,19.37
2023-03-06T15:41:21.977Z,16.93
2023-03-06T15:43:49.462Z,14.83
2023-03-06T15:46:16.750Z,19.00
2023-03-06T15:48:59.754Z,18.60
2023-03-06T15:51:28.404Z,17.17
2023-03-06T15:54:09.916Z,21.47
2023-03-06T15:56:41.664Z,16.73
2023-03-06T15:59:24.595Z,17.43
2023-03-06T16:01:52.832Z,18.40
2023-03-06T16:04:20.277Z,13.73
2023-03-06T16:06:50.837Z,16.00
2023-03-06T16:09:18.104Z,15.60
2023-03-06T16:11:46.630Z,18.93
2023-03-06T16:14:32.292Z,17.90
2023-03-06T16:16:59.670Z,18.23
2023-03-06T16:19:27.915Z,19.43
2023-03-06T16:21:56.710Z,22.03
2023-03-06T16:24:26.174Z,16.53
2023-03-06T16:26:54.908Z,16.53
2023-03-06T16:29:25.214Z,17.43
2023-03-06T16:31:55.074Z,20.97
2023-03-06T16:34:23.219Z,22.50
2023-03-06T16:36:51.037Z,22.67
2023-03-06T16:39:21.210Z,19.27
2023-03-06T16:41:51.807Z,19.83
2023-03-06T16:44:20.206Z,20.73
2023-03-06T16:46:49.583Z,23.73
2023-03-06T16:49:22.398Z,22.90
2023-03-06T16:51:50.258Z,21.67
2023-03-06T16:54:17.978Z,24.80
2023-03-06T16:56:45.698Z,18.77
2023-03-06T16:59:13.038Z,19.43
2023-03-06T17:01:43.010Z,17.33
2023-03-06T17:04:11.032Z,23.73
2023-03-06T17:06:39.239Z,20.70
2023-03-06T17:09:07.070Z,23.43
2023-03-06T17:11:36.674Z,22.80
2023-03-06T17:14:04.292Z,20.83
2023-03-06T17:16:31.666Z,21.63
2023-03-06T17:18:59.807Z,19.00
2023-03-06T17:21:27.241Z,17.17
2023-03-06T17:23:54.576Z,26.13
2023-03-06T17:26:21.851Z,24.87
2023-03-06T17:28:49.157Z,23.53
2023-03-06T17:31:25.381Z,20.10
2023-03-06T17:33:59.814Z,22.13
2023-03-06T17:36:28.419Z,24.47
2023-03-06T17:38:57.343Z,24.97
2023-03-06T17:41:24.956Z,18.20
2023-03-06T17:43:54.872Z,21.30
2023-03-06T17:46:22.418Z,18.97
2023-03-06T17:48:49.701Z,18.27
2023-03-06T17:51:16.990Z,16.37
2023-03-06T17:53:44.300Z,21.17
2023-03-06T17:56:13.792Z,20.20
2023-03-06T17:58:41.189Z,22.00
2023-03-06T18:01:34.854Z,23.27
2023-03-06T18:04:03.780Z,26.97
2023-03-06T18:06:33.372Z,28.73
2023-03-06T18:09:01.237Z,31.87
2023-03-06T18:11:29.119Z,27.10
2023-03-06T18:13:56.812Z,26.37
2023-03-06T18:16:26.035Z,28.30
2023-03-06T18:18:55.185Z,26.23
2023-03-06T18:21:23.606Z,24.40
2023-03-06T18:23:51.233Z,24.23
2023-03-06T18:26:29.235Z,28.83
2023-03-06T18:28:58.881Z,20.90
2023-03-06T18:31:30.020Z,25.33
2023-03-06T18:34:02.208Z,19.07
2023-03-06T18:36:31.717Z,21.03
2023-03-06T18:39:00.866Z,18.33
2023-03-06T18:41:28.151Z,21.07
2023-03-06T18:43:57.514Z,17.73
2023-03-06T18:46:25.951Z,18.70
2023-03-06T18:48:54.619Z,22.70
2023-03-06T18:51:21.962Z,22.73
2023-03-06T18:53:49.398Z,19.63
2023-03-06T18:56:21.494Z,17.53
2023-03-06T18:58:50.349Z,19.70
2023-03-06T19:01:18.304Z,16.20
2023-03-06T19:03:45.799Z,17.90
2023-03-06T19:06:16.941Z,22.13
2023-03-06T19:08:44.813Z,16.40
2023-03-06T19:11:14.585Z,22.47
2023-03-06T19:13:42.067Z,20.23
2023-03-06T19:16:22.988Z,19.07
2023-03-06T19:18:50.730Z,19.33
2023-03-06T19:21:20.169Z,22.77
2023-03-06T19:23:48.637Z,19.03
2023-03-06T19:26:18.708Z,23.43
2023-03-06T19:28:47.125Z,20.53
2023-03-06T19:31:19.525Z,23.20
2023-03-06T19:33:53.116Z,20.87
2023-03-06T19:36:23.629Z,21.23
2023-03-06T19:38:54.201Z,19.43
2023-03-06T19:41:30.908Z,28.37
2023-03-06T19:43:59.996Z,20.10
2023-03-06T19:46:27.429Z,18.57
2023-03-06T19:48:56.599Z,18.00
2023-03-06T19:51:24.695Z,20.07
2023-03-06T19:53:52.988Z,19.80
2023-03-06T19:56:22.617Z,20.27
2023-03-06T19:58:50.017Z,18.73
2023-03-06T20:01:19.685Z,20.27
2023-03-06T20:03:47.159Z,18.33
2023-03-06T20:06:18.401Z,17.83
2023-03-06T20:08:46.735Z,24.27
2023-03-06T20:11:26.084Z,19.90
2023-03-06T20:13:53.616Z,18.13
2023-03-06T20:16:20.888Z,23.07
2023-03-06T20:18:48.384Z,15.50
2023-03-06T20:21:16.010Z,18.37
2023-03-06T20:23:43.351Z,18.27
2023-03-06T20:26:14.254Z,19.07
2023-03-06T20:28:42.622Z,18.53
2023-03-06T20:31:13.408Z,16.60
2023-03-06T20:33:40.806Z,16.27
2023-03-06T20:36:32.396Z,17.90
2023-03-06T20:39:00.469Z,18.43
2023-03-06T20:41:29.756Z,17.10
2023-03-06T20:43:59.643Z,16.67
2023-03-06T20:46:27.039Z,17.57
2023-03-06T20:48:55.834Z,19.93
2023-03-06T20:51:31.619Z,18.47
2023-03-06T20:54:00.885Z,24.50
2023-03-06T20:56:31.452Z,21.10
2023-03-06T20:58:58.805Z,17.17
2023-03-06T21:01:31.211Z,18.57
2023-03-06T21:04:00.783Z,17.57
2023-03-06T21:06:32.014Z,22.30
2023-03-06T21:09:01.238Z,23.73
2023-03-06T21:11:28.925Z,20.13
2023-03-06T21:13:56.756Z,21.33
2023-03-06T21:16:26.370Z,20.87
2023-03-06T21:18:58.616Z,21.77
2023-03-06T21:21:29.118Z,21.73
2023-03-06T21:23:56.614Z,21.30
2023-03-06T21:26:26.774Z,18.97
2023-03-06T21:28:56.455Z,20.23
2023-03-06T21:31:24.001Z,23.10
2023-03-06T21:33:51.688Z,18.40
2023-03-06T21:36:23.646Z,18.27
2023-03-06T21:38:52.353Z,19.43
2023-03-06T21:41:26.149Z,18.83
2023-03-06T21:43:58.608Z,19.73
2023-03-06T21:46:26.691Z,20.80
2023-03-06T21:48:54.587Z,21.63
2023-03-06T21:51:26.018Z,19.60
2023-03-06T21:53:54.183Z,20.87
2023-03-06T21:56:25.300Z,25.30
2023-03-06T21:58:53.091Z,20.53
2023-03-06T22:01:23.454Z,22.03
2023-03-06T22:03:51.063Z,22.00
2023-03-06T22:06:22.143Z,20.87
2023-03-06T22:08:49.674Z,22.80
2023-03-06T22:11:20.434Z,24.97
2023-03-06T22:13:48.599Z,24.40
2023-03-06T22:16:17.612Z,24.93
2023-03-06T22:18:46.264Z,20.97
2023-03-06T22:21:15.964Z,25.17
2023-03-06T22:23:43.517Z,20.60
2023-03-06T22:26:12.964Z,24.23
2023-03-06T22:28:41.373Z,23.97
2023-03-06T22:31:12.673Z,22.03
2023-03-06T22:33:40.461Z,20.27
2023-03-06T22:36:15.798Z,21.03
2023-03-06T22:38:45.377Z,21.43
2023-03-06T22:41:14.394Z,19.30
2023-03-06T22:43:42.146Z,20.67
2023-03-06T22:46:13.578Z,26.10
2023-03-06T22:48:41.158Z,28.13
2023-03-06T22:51:15.217Z,22.87
2023-03-06T22:53:43.053Z,19.63
2023-03-06T22:56:12.378Z,17.63
2023-03-06T22:58:40.345Z,19.30
2023-03-06T23:01:23.177Z,20.60
2023-03-06T23:03:52.977Z,20.93
2023-03-06T23:06:26.767Z,22.97
2023-03-06T23:08:57.413Z,19.03
2023-03-06T23:11:25.432Z,19.93
2023-03-06T23:14:12.415Z,17.60
2023-03-06T23:16:58.429Z,17.57
2023-03-06T23:19:44.199Z,18.33
2023-03-06T23:22:30.052Z,16.07
2023-03-06T23:25:15.918Z,17.33
2023-03-06T23:27:43.338Z,16.13
2023-03-06T23:30:12.006Z,14.47
2023-03-06T23:32:39.305Z,18.30
2023-03-06T23:35:07.572Z,16.80
2023-03-06T23:37:34.898Z,13.60
2023-03-06T23:40:02.188Z,12.37
2023-03-06T23:42:29.440Z,14.40
2023-03-06T23:44:56.699Z,10.83
2023-03-06T23:47:24.066Z,11.80
2023-03-06T23:49:51.228Z,8.17
2023-03-06T23:52:18.657Z,15.43
2023-03-06T23:54:49.708Z,8.83
2023-03-06T23:57:16.956Z,7.87
2023-03-06T23:59:44.436Z,6.00
